x

8452951 - Potter Cove, Prudence Island, Ri (ptcr1) Weather Station

5:54 - Thu 30th Oct 2014 All times are EDT. -4 hours from GMT.

  • Wind
    5mph, 10mph gusts
  • Air Temp 54°f
  • Sea Pressure 1013.5mb
  • 8452951 - Potter Cove, Prudence Island, Ri
  • 8452951 - Potter Cove, Prudence Island, Ri

More Historic Weather Station data

Upgrade to MSW Pro to gain access to the past 30 days of data for over 8000 Wavebouys and Weather Stations around the globe.

Join Pro

Comparision Forecast

View Surf forecast
   
jeu. 10/30 5:54 5 10 mph 1013.5mb 54f
5:48 5 9 mph 1013.4mb 55f
5:42 5 10 mph 1013.3mb 55f
5:36 3 6 mph 1013.2mb 55f
5:30 5 11 mph 1013.1mb 55f
5:24 5 10 mph 1013.1mb 56f
5:18 6 11 mph 1013mb 56f
5:12 6 11 mph 1013mb 56f
5:06 7 11 mph 1013mb 57f
5:00 7 14 mph 1012.9mb 58f
4:54 6 9 mph 1012.9mb 57f
4:48 5 11 mph 1012.8mb 58f
4:42 5 9 mph 1012.8mb 59f
4:36 7 11 mph 1012.7mb 58f
4:30 7 11 mph 1012.7mb 59f
4:24 5 11 mph 1012.7mb 59f
4:18 6 14 mph 1012.7mb 59f
4:12 5 9 mph 1012.7mb 58f
4:06 6 10 mph 1012.6mb 59f
4:00 6 10 mph 1012.6mb 60f
3:54 5 8 mph 1012.5mb 60f
3:48 10 14 mph 1012.5mb 60f
3:42 8 15 mph 1012.5mb 60f
3:36 7 11 mph 1012.4mb 61f
3:30 5 9 mph 1012.4mb 61f
3:24 3 9 mph 1012.3mb 61f
3:18 6 11 mph 1012.3mb 61f
3:12 7 11 mph 1012.2mb 61f
3:06 7 14 mph 1012.2mb 61f
3:00 5 10 mph 1012.2mb 60f
2:54 6 11 mph 1012.2mb 58f
2:48 8 16 mph 1012.2mb 59f
2:42 3 9 mph 1012.2mb 62f
2:36 6 10 mph 1012.3mb 61f
2:30 3 8 mph 1012.2mb 61f
2:24 7 11 mph 1012.2mb 61f
2:18 6 10 mph 1012.2mb 62f
2:12 7 14 mph 1012.2mb 63f
2:06 5 9 mph 1012.2mb 62f
2:00 6 9 mph 1012.3mb 61f
1:54 7 11 mph 1012.3mb 62f
1:48 6 9 mph 1012.4mb 61f
1:42 7 11 mph 1012.4mb 61f
1:36 7 11 mph 1012.4mb 60f
1:30 6 9 mph 1012.5mb 60f
1:24 5 9 mph 1012.5mb 62f
1:18  -  mph - 61f
1:12  -  mph - 61f
1:06  -  mph - 60f
1:00  -  mph 1012.5mb -
12:54  -  mph 1012.6mb -
12:48 5 9 mph 1012.7mb 60f
12:42 5 8 mph 1012.7mb 60f
12:36 3 7 mph 1012.8mb 60f
12:30 3 9 mph 1012.8mb 59f
12:24 5 11 mph 1012.9mb 60f
12:18 7 11 mph 1013mb 59f
12:12 5 8 mph 1013mb 60f
12:06 5 8 mph 1013.1mb 60f
12:00 3 7 mph 1013mb 60f
11:54 6 11 mph 1013.1mb 59f
11:48 7 10 mph 1013.1mb 58f
11:42 5 9 mph 1013.2mb 58f
11:36 6 9 mph 1013.3mb 58f
11:30 6 9 mph 1013.3mb 58f
11:24 7 10 mph 1013.4mb 57f
11:18 7 10 mph 1013.4mb 58f
11:12 7 10 mph 1013.5mb 58f
11:06 7 15 mph 1013.5mb 57f
11:00 3 7 mph 1013.5mb 57f
10:54 3 7 mph 1013.5mb 57f
10:48 6 9 mph 1013.5mb 56f
10:42 2 7 mph 1013.5mb 57f
10:36 3 6 mph 1013.5mb 56f
10:30 3 7 mph 1013.5mb 56f
10:24 7 10 mph 1013.5mb 56f
10:18 6 11 mph 1013.5mb 55f
10:12 3 7 mph 1013.5mb 56f
10:06 5 10 mph 1013.5mb 55f
10:00 5 10 mph 1013.5mb 55f
9:54 6 11 mph 1013.4mb 54f
9:48 6 10 mph 1013.5mb 54f
9:42 5 9 mph 1013.6mb 53f
9:36 6 10 mph 1013.6mb 53f
9:30 3 8 mph 1013.5mb 53f
9:24 5 9 mph 1013.6mb 52f
9:18 3 7 mph 1013.5mb 52f
9:12 5 8 mph 1013.6mb 52f
9:06 3 8 mph 1013.6mb 51f
9:00 3 9 mph 1013.6mb 51f
8:54 5 8 mph 1013.6mb 50f
8:48 5 8 mph 1013.6mb 50f
8:42 5 7 mph 1013.5mb 50f
8:36 5 7 mph 1013.4mb 50f
8:30 6 9 mph 1013.4mb 50f
8:24 3 5 mph 1013.4mb 49f
8:18 2 3 mph 1013.3mb 49f
8:12 3 5 mph 1013.3mb 49f
8:06 3 7 mph 1013.2mb 48f
8:00 3 7 mph 1013.1mb 47f
7:54 3 6 mph 1013.1mb 47f
7:48 3 6 mph 1013.2mb 47f
7:42 2 5 mph 1013.1mb 47f
7:36 2 6 mph 1013mb 47f
7:30 3 6 mph 1013mb 48f
7:24 2 5 mph 1012.9mb 48f
7:18 2 3 mph 1012.8mb 49f
7:12 2 3 mph 1012.8mb 49f
7:06 2 5 mph 1012.8mb 49f
7:00 2 5 mph 1012.9mb 49f
6:54 2 5 mph 1012.9mb 49f
6:48 2 6 mph 1012.8mb 48f
6:42  -  1 mph 1012.8mb 48f
6:36 2 5 mph 1012.8mb 48f
6:30 2 3 mph 1012.8mb 48f
6:24 2 5 mph 1012.7mb 49f
6:18 2 3 mph 1012.6mb 49f
6:12  -  2 mph 1012.6mb 49f
6:06  -  mph 1012.6mb 49f
6:00  -  3 mph 1012.5mb 49f
5:54 3 5 mph 1012.5mb 49f
5:48  -  3 mph 1012.5mb 48f
5:42  -  3 mph 1012.6mb 48f
5:36  -  2 mph 1012.4mb 49f
5:30  -  3 mph 1012.5mb 49f
5:24 3 6 mph 1012.4mb 49f
5:18 3 7 mph 1012.4mb 49f
5:12 3 7 mph 1012.3mb 49f
5:06 5 8 mph 1012.1mb 50f
5:00 5 9 mph 1011.9mb 49f
4:54 6 9 mph 1011.8mb 49f
4:48 2 7 mph 1011.7mb 49f
4:42 3 8 mph 1011.6mb 49f
4:36 3 6 mph 1011.6mb 49f
4:30 3 7 mph 1011.7mb 49f
4:24 3 7 mph 1011.7mb 49f
4:18 2 6 mph 1011.7mb 49f
4:12 3 8 mph 1011.7mb 49f
4:06 5 7 mph 1011.7mb 50f
4:00 2 7 mph 1011.9mb 50f
3:54 2 3 mph 1011.9mb 50f
3:48 2 3 mph 1011.9mb 50f
3:42 3 7 mph 1011.7mb 50f
3:36 3 6 mph 1011.6mb 50f
3:30 5 9 mph 1011.7mb 50f
3:24 3 7 mph 1011.7mb 50f
3:18 3 8 mph 1011.8mb 50f
3:12 3 7 mph 1011.8mb 50f
3:06 7 13 mph 1011.9mb 51f
3:00 5 11 mph 1011.9mb 51f
2:54 6 11 mph 1011.9mb 51f
2:48 6 10 mph 1011.9mb 51f
2:42 6 11 mph 1011.8mb 51f
2:36 6 9 mph 1011.9mb 51f
2:30 6 10 mph 1012mb 51f
2:24 6 9 mph 1011.9mb 51f
2:18 6 8 mph 1011.8mb 51f
2:12 5 10 mph 1011.8mb 51f
2:00 3 6 mph 1011.7mb 51f
1:54 3 6 mph 1011.7mb 52f
1:48 3 7 mph 1011.7mb 51f
1:42 6 10 mph 1011.8mb 52f
1:36 5 10 mph 1011.8mb 52f
1:30 6 9 mph 1011.8mb 53f
1:24 6 13 mph 1011.8mb 53f
1:18 5 11 mph 1011.6mb 53f
1:12 5 8 mph 1011.5mb 53f
1:06 5 8 mph 1011.4mb 53f
1:00 3 8 mph 1011.5mb 53f
12:54 6 10 mph 1011.6mb 53f
12:48 5 6 mph 1011.8mb 53f
12:42 3 6 mph 1011.6mb 53f
12:36 2 5 mph 1011.8mb 53f
12:30 2 3 mph 1011.8mb 53f
12:24  -  2 mph 1011.5mb 53f
12:18  -  1 mph 1011.5mb 53f
12:12  -  1 mph 1011.5mb 53f
12:06  -  2 mph 1011.6mb 53f
12:00  -  2 mph 1011.5mb 53f
mer. 10/29 11:54 1 3 mph 1011.5mb 53f
11:48 2 3 mph 1011.5mb 53f
11:42 2 3 mph 1011.5mb 53f
11:36 1 3 mph 1011.5mb 53f
11:30 2 6 mph 1011.5mb 53f
11:24 3 7 mph 1011.6mb 53f
11:18 3 9 mph 1011.6mb 53f
11:12 2 6 mph 1011.5mb 53f
11:06 2 5 mph 1011.5mb 53f
11:00  -  2 mph 1011.5mb 53f
10:54 2 3 mph 1011.5mb 53f
10:48 2
mph
1011.5mb 53f
10:42 1 3 mph 1011.3mb 53f
10:36 2 5 mph 1011.4mb 53f
10:30 5 7 mph 1011.4mb 53f
10:24 2 3 mph 1011.6mb 53f
10:18 3 7 mph 1011.4mb 53f
10:12 3 6 mph 1011.3mb 53f
10:06 3 9 mph 1011.5mb 54f
10:00 5 8 mph 1011.5mb 54f
9:54 3 7 mph 1011.4mb 54f
9:48 5 8 mph 1011.4mb 55f
9:42 2 6 mph 1011.2mb 55f
9:36 3 10 mph 1011mb 55f
9:30 3 6 mph 1010.9mb 55f
9:24 5 7 mph 1010.8mb 56f
9:18 5 10 mph 1010.8mb 57f
9:12 5 9 mph 1010.4mb 59f
9:06 5 9 mph 1010.2mb 60f
9:00 5 10 mph 1010.5mb 60f
8:54 6 11 mph 1010.5mb 60f
8:48 5 9 mph 1010.4mb 59f
8:42 2 6 mph 1010mb 60f
8:36 3 7 mph 1010mb 60f
8:30 5 9 mph 1010mb 60f
8:24 2 7 mph 1009.5mb 60f
8:18 3 7 mph 1009.8mb 60f
8:12 3 7 mph 1010.2mb 60f
8:06 3 6 mph 1010.1mb 61f
8:00 2 6 mph 1010.2mb 61f
7:54 5 8 mph 1010.2mb 61f
7:48 3 6 mph 1010.1mb 61f
7:42 3 8 mph 1010.1mb 61f
7:36 3 5 mph 1010mb 61f
7:30 2 3 mph 1010mb 61f
7:24 3 6 mph 1009.9mb 61f
7:18 3 5 mph 1009.8mb 61f
7:12 3 6 mph 1009.6mb 61f
7:06 5 7 mph 1009.6mb 62f
7:00 5 11 mph 1009.8mb 62f
6:54 7 11 mph 1009.8mb 62f
6:48 8 14 mph 1009.8mb 62f
6:42 9 16 mph 1009.7mb 63f
6:36 9 15 mph 1009.5mb 63f
6:30 7 13 mph 1009.6mb 63f
6:24 7 16 mph 1009.4mb 64f
6:18 5 9 mph 1009.1mb 64f
6:12 9 15 mph 1008.9mb 63f
6:06 5 9 mph 1008.4mb 63f
6:00 5 9 mph 1008.3mb 63f
5:54 5 10 mph 1008.2mb 63f
5:48 5 9 mph 1008.2mb 63f
5:42 7 13 mph 1008.1mb 63f
5:36 5 11 mph 1008.1mb 63f
5:30 6 11 mph 1008mb 63f
5:24 7 14 mph 1008mb 63f
5:18 7 16 mph 1007.9mb 63f
5:12 6 14 mph 1007.8mb 63f
5:06 8 16 mph 1007.8mb 64f
5:00 6 14 mph 1007.8mb 65f
4:54 6 13 mph 1007.7mb 65f
4:48 6 10 mph 1007.6mb 65f
4:42 7 14 mph 1007.5mb 66f
4:36 7 13 mph 1007.5mb 66f
4:30 6 11 mph 1007.7mb 66f
4:24 6 10 mph 1007.7mb 66f
4:18 6 13 mph 1007.6mb 66f
4:12 5 11 mph 1007.6mb 65f
4:06 7 15 mph 1007.8mb 65f
4:00 6 13 mph 1007.8mb 65f
3:54 7 16 mph 1007.8mb 66f
3:48 7 15 mph 1007.9mb 67f
3:42 5 11 mph 1007.9mb 67f
3:36 6 13 mph 1007.8mb 67f
3:30 6 14 mph 1007.8mb 67f
3:24 6 13 mph 1007.9mb 67f
3:18 8 14 mph 1007.9mb 66f
3:12 7 13 mph 1007.9mb 67f
3:06 8 15 mph 1007.8mb 67f
3:00 7 15 mph 1007.8mb 67f
2:54 5 14 mph 1007.8mb 67f
2:48 7 16 mph 1007.8mb 66f
2:42 7 15 mph 1007.9mb 66f
2:36 7 16 mph 1008mb 66f
2:30 7 14 mph 1008mb 66f
2:24 8 14 mph 1008mb 66f
2:18 7 11 mph 1008mb 67f
2:12 6 11 mph 1008.1mb 67f
2:06 6 14 mph 1008.1mb 67f
2:00 6 14 mph 1008.2mb 67f
1:54 6 13 mph 1008.3mb 67f
1:48 7 14 mph 1008.4mb 67f
1:42 6 10 mph 1008.5mb 67f
1:36 6 14 mph 1008.5mb 67f
1:30 6 13 mph 1008.5mb 67f
1:24 6 14 mph 1008.5mb 68f
1:18 7 13 mph 1008.6mb 67f
1:12 8 15 mph 1008.6mb 67f
1:06 7 14 mph 1008.7mb 67f
1:00 5 9 mph 1008.8mb 67f
12:54 5 10 mph 1008.9mb 68f
12:48 6 11 mph 1009mb 68f
12:42 6 11 mph 1009.1mb 68f
12:36 5 9 mph 1009.1mb 69f
12:30 6 11 mph 1009.2mb 69f
12:24 5 8 mph 1009.3mb 69f
12:18 6 11 mph 1009.5mb 69f
12:12 6 11 mph 1009.5mb 69f
12:06 6 13 mph 1009.6mb 69f
12:00 7 13 mph 1009.7mb 68f
11:54 8 16 mph 1009.8mb 68f
11:48 6 11 mph 1009.9mb 68f
11:42 6 9 mph 1010mb 68f
11:36 6 10 mph 1010.1mb 68f
11:30 6 10 mph 1010.2mb 68f
11:24 5 9 mph 1010.2mb 68f
11:18 5 10 mph 1010.3mb 67f
11:12 5 10 mph 1010.3mb 68f
11:06 5 10 mph 1010.3mb 67f
11:00 5 8 mph 1010.3mb 67f
10:54 6 11 mph 1010.4mb 67f
10:48 5 9 mph 1010.5mb 67f
10:42 5 8 mph 1010.5mb 66f
10:36 5 10 mph 1010.5mb 67f
10:30 6 11 mph 1010.5mb 66f
10:24 6 9 mph 1010.5mb 66f
10:18 5 10 mph 1010.6mb 66f
10:12 5 9 mph 1010.6mb 65f
10:06 3 8 mph 1010.7mb 65f
10:00 5 8 mph 1010.7mb 65f
9:54 3 9 mph 1010.7mb 66f
9:48 6 11 mph 1010.8mb 66f
9:42 3 7 mph 1011mb 65f
9:36 3 8 mph 1011mb 65f
9:30 3 7 mph 1011.1mb 65f
9:24 3 8 mph 1011mb 64f
9:18 2 6 mph 1010.9mb 64f
9:12 3 9 mph 1011mb 64f
9:06 6 10 mph 1011.1mb 64f
9:00 6 11 mph 1011.2mb 64f
8:54 6 11 mph 1011.2mb 64f
8:48 5 8 mph 1011.3mb 63f
8:42 6 9 mph 1011.3mb 63f
8:36 6 10 mph 1011.3mb 63f
8:30 5 9 mph 1011.3mb 63f
8:24 5 8 mph 1011.3mb 63f
8:18 5 8 mph 1011.4mb 63f
8:12 5 9 mph 1011.4mb 62f
8:06 3 6 mph 1011.3mb 62f
8:00 3 8 mph 1011.2mb 62f
7:54 3 8 mph 1011.2mb 62f
7:48 5 7 mph 1011.2mb 62f
7:42 3 7 mph 1011.2mb 62f
7:36 3 6 mph 1011.1mb 62f
7:30 5 8 mph 1011.1mb 62f
7:24 5 9 mph 1011.1mb 62f
7:18 7 13 mph 1011.2mb 62f
7:12 6 9 mph 1011.3mb 62f
7:06 5 10 mph 1011.2mb 62f
7:00 5 8 mph 1011.1mb 62f
6:54 5 9 mph 1011.1mb 62f
6:48 6 11 mph 1011.1mb 62f
6:42 6 11 mph 1011mb 63f
6:36 7 13 mph 1011.1mb 63f
6:30 6 11 mph 1011.1mb 63f
6:24 8 14 mph 1011.2mb 62f
6:18 8 11 mph 1011.2mb 62f
6:12 7 11 mph 1011.1mb 62f
6:06 7 15 mph 1011.1mb 62f
6:00 7 14 mph 1011.2mb 62f
5:54 8 14 mph 1011.2mb 62f
5:48 8 14 mph 1011.2mb 62f
5:42 8 13 mph 1011.2mb 62f
5:36 6 10 mph 1011.2mb 62f
5:30 7 13 mph 1011.3mb 62f
5:24 7 11 mph 1011.3mb 62f
5:18 7 11 mph 1011.4mb 62f
5:12 7 11 mph 1011.3mb 61f
5:06 6 13 mph 1011.3mb 62f
5:00 6 10 mph 1011.3mb 61f
4:54 6 10 mph 1011.4mb 61f
4:48 6 10 mph 1011.4mb 61f
4:42 5 9 mph 1011.4mb 61f
4:36 5 9 mph 1011.4mb 61f
4:30 5 10 mph 1011.4mb 61f
4:24 5 9 mph 1011.4mb 61f
4:18 5 9 mph 1011.4mb 61f
4:12 5 10 mph 1011.4mb 61f
4:06 6 11 mph 1011.5mb 61f
4:00 5 10 mph 1011.5mb 61f
3:54 5 10 mph 1011.5mb 61f
3:48 5 8 mph 1011.5mb 61f
3:42 5 10 mph 1011.5mb 61f
3:36 5 11 mph 1011.7mb 61f
3:30 5 11 mph 1011.7mb 61f
3:24 6 10 mph 1011.8mb 61f
3:18 6 10 mph 1011.9mb 61f
3:12 6 11 mph 1012mb 61f
3:06 5 10 mph 1012.1mb 61f
3:00 6 11 mph 1012.1mb 61f
2:54 5 8 mph 1012.2mb 61f
2:48 6 11 mph 1012.3mb 61f
2:42 5 9 mph 1012.4mb 60f
2:36 5 8 mph 1012.3mb 61f
2:30 5 9 mph 1012.3mb 61f
2:24 3 9 mph 1012.3mb 61f
2:18 5 10 mph 1012.4mb 61f
2:12 3 7 mph 1012.4mb 61f
2:06 3 8 mph 1012.5mb 61f
2:00 3 7 mph 1012.5mb 60f
1:54 3 8 mph 1012.6mb 60f
1:48 3 6 mph 1012.8mb 60f
1:42 3 7 mph 1012.8mb 60f
1:36 5 8 mph 1013mb 60f
1:30 5 7 mph 1013mb 60f
1:24 3 8 mph 1013mb 61f
1:18 5 7 mph 1013mb 61f
1:12 5 8 mph 1013.1mb 61f
1:06 5 7 mph 1013.1mb 60f
1:00 3 6 mph 1013.1mb 60f
12:54 2 5 mph 1013.1mb 60f
12:48 2 6 mph 1013.1mb 60f
12:42 2 6 mph 1013.1mb 60f
12:36 2 6 mph 1013.1mb 61f
12:30 3 7 mph 1013.1mb 61f
12:24 2 6 mph 1013.1mb 60f
12:18 3 6 mph 1013.2mb 61f
12:12 5 8 mph 1013.2mb 61f
12:06 3 7 mph 1013.3mb 61f
12:00 1 5 mph 1013.3mb 61f
mar. 10/28 11:54 2 3 mph 1013.3mb 61f
11:48 3 7 mph 1013.3mb 61f
11:42 2 5 mph 1013.3mb 61f
11:36 6 8 mph 1013.3mb 61f
11:30 6 10 mph 1013.2mb 61f
11:24 5 8 mph 1013mb 61f
11:18 5 8 mph 1012.9mb 61f
11:12 6 10 mph 1012.9mb 61f
11:06 6 10 mph 1013mb 61f
11:00 5 9 mph 1013.1mb 61f
10:54 5 10 mph 1013.1mb 61f
10:48 3 8 mph 1013.2mb 61f
10:42 3 9 mph 1013.3mb 61f
10:36 3 6 mph 1013.2mb 61f
10:30 3 7 mph 1013.3mb 61f
10:24 5 8 mph 1013.4mb 61f
10:18 3 6 mph 1013.5mb 61f
10:12 3 6 mph 1013.5mb 60f
10:06 3 7 mph 1013.6mb 60f
10:00 3 7 mph 1013.7mb 60f
9:54 3 7 mph 1013.8mb 61f
9:48 3 7 mph 1013.9mb 61f
9:42 3 7 mph 1013.9mb 61f
9:36 5 9 mph 1014mb 61f
9:30 3 7 mph 1013.9mb 61f
9:24 3 8 mph 1013.9mb 61f
9:18 3 6 mph 1014mb 61f
9:12 3 7 mph 1014mb 61f
9:06 3 8 mph 1014mb 61f
9:00 3 8 mph 1014mb 61f
8:54 5 8 mph 1014mb 61f
8:48 5 9 mph 1013.9mb 60f
8:42 5 9 mph 1013.8mb 60f
8:36 5 9 mph 1013.8mb 61f
8:30 5 9 mph 1013.8mb 61f
8:24 5 9 mph 1013.7mb 61f
8:18 6 13 mph 1013.6mb 61f
8:12 6 11 mph 1013.6mb 61f
8:06 6 13 mph 1013.6mb 61f
8:00 6 13 mph 1013.6mb 61f
7:54 6 11 mph 1013.7mb 61f
7:48 6 10 mph 1013.7mb 61f
7:42 5 9 mph 1013.7mb 61f
7:36 6 10 mph 1013.7mb 61f
7:30 6 13 mph 1013.8mb 61f
7:24 6 11 mph 1013.8mb 61f
7:18 6 10 mph 1013.8mb 61f
7:12 6 10 mph 1013.9mb 61f
7:06 5 10 mph 1013.9mb 61f
7:00 5 11 mph 1013.8mb 61f
6:54 6 13 mph 1013.9mb 61f
6:48 6 13 mph 1013.9mb 61f
6:42 6 13 mph 1013.9mb 61f
6:36 6 13 mph 1013.8mb 61f
6:30 7 13 mph 1013.9mb 61f
6:24 7 14 mph 1013.9mb 61f
6:18 7 10 mph 1013.9mb 61f
6:12 6 10 mph 1014mb 61f
6:06 6 11 mph 1014mb 61f
6:00 6 10 mph 1014mb 62f
5:54 5 10 mph 1014mb 62f
5:48 3 10 mph 1014mb 62f
5:42 6 9 mph 1014.1mb 62f
5:36 5 11 mph 1014.1mb 62f
5:30 6 11 mph 1014.1mb 62f
5:24 5 10 mph 1014mb 62f
5:18 5 10 mph 1014.1mb 62f
5:12 5 8 mph 1014.1mb 63f
5:06 5 8 mph 1014.2mb 63f
5:00 5 8 mph 1014.1mb 63f
4:54 3 8 mph 1014.1mb 63f
4:48 3 8 mph 1014.2mb 64f
4:42 5 9 mph 1014.2mb 64f
4:36 5 10 mph 1014.2mb 63f
4:30 5 9 mph 1014.3mb 64f
4:24 5 9 mph 1014.3mb 64f
4:18 5 9 mph 1014.4mb 64f
4:12 6 10 mph 1014.4mb 64f
4:06 6 11 mph 1014.4mb 65f
4:00 3 9 mph 1014.3mb 65f
3:54 3 7 mph 1014.4mb 65f
3:48 6 13 mph 1014.3mb 64f
3:42 5 9 mph 1014.4mb 64f
3:36 5 9 mph 1014.4mb 64f
3:30 5 9 mph 1014.4mb 65f
3:24 5 10 mph 1014.5mb 65f
3:18 6 10 mph 1014.4mb 65f
3:12 6 10 mph 1014.5mb 65f
3:06 5 11 mph 1014.5mb 65f
3:00 5 10 mph 1014.5mb 66f
2:54 6 13 mph 1014.5mb 66f
2:48 5 9 mph 1014.5mb 66f
2:42 5 10 mph 1014.5mb 65f
2:36 6 10 mph 1014.5mb 65f
2:30 5 8 mph 1014.6mb 65f
2:24 5 10 mph 1014.7mb 66f
2:18 5 10 mph 1014.8mb 67f
2:12 6 10 mph 1014.8mb 66f
2:06 5 9 mph 1014.8mb 66f
2:00 7 15 mph 1014.9mb 65f
1:54 7 15 mph 1014.8mb 66f
1:48 7 13 mph 1014.9mb 65f
1:42 8 15 mph 1015mb 65f
1:36 8 13 mph 1015mb 65f
1:30 9 15 mph 1015.2mb 66f
1:24 8 15 mph 1015.2mb 66f
1:18 6 13 mph 1015.3mb 65f
1:12 9 15 mph 1015.5mb 65f
1:06 8 17 mph 1015.5mb 65f
1:00 7 15 mph 1015.4mb 65f
12:54 7 13 mph 1015.4mb 65f
12:48 7 13 mph 1015.5mb 66f
12:42 8 13 mph 1015.6mb 66f
12:36 9 14 mph 1015.8mb 67f
12:30 7 16 mph 1015.8mb 67f
12:24 8 17 mph 1016mb 67f
12:18 7 16 mph 1015.9mb 67f
12:12 7 11 mph 1016mb 67f
12:06 8 14 mph 1016mb 67f
12:00 7 16 mph 1016.1mb 67f
11:54 6 13 mph 1016.2mb 66f
11:48 5 9 mph 1016.2mb 67f
11:42 7 13 mph 1016.4mb 66f
11:36 6 13 mph 1016.4mb 66f
11:30 6 14 mph 1016.5mb 66f
11:24 9 17 mph 1016.5mb 65f
11:18 7 11 mph 1016.5mb 66f
11:12 6 10 mph 1016.6mb 65f
11:06 7 10 mph 1016.8mb 65f
11:00 7 11 mph 1016.8mb 65f
10:54 5 10 mph 1016.8mb 64f
10:48 8 14 mph 1016.8mb 64f
10:42 6 13 mph 1016.8mb 64f
10:36 3 6 mph 1016.8mb 64f
10:30 2 6 mph 1016.8mb 64f
10:24 2 7 mph 1017mb 60f
10:18 2 3 mph 1017mb 58f
10:12 1 3 mph 1017mb 58f
10:06  -  1 mph 1017.1mb 57f
10:00  -  1 mph 1017.2mb 57f
9:54  -  1 mph 1017.3mb 56f
9:48 1 2 mph 1017.2mb 56f
9:42 1 2 mph 1017.3mb 56f
9:36  -  2 mph 1017.3mb 55f
9:30 1 2 mph 1017.3mb 55f
9:24 2
mph
1017.3mb 54f
9:18 1 2 mph 1017.2mb 55f
9:12  -  2 mph 1017.1mb 55f
9:06  -  mph 1017.1mb 55f
9:00  -  mph 1017.4mb 54f
8:54  -  1 mph 1017.4mb 54f
8:48  -  mph 1017.4mb 53f
8:42  -  mph 1017.4mb 53f
8:36  -  mph 1017.3mb 53f
8:30  -  1 mph 1017.3mb 53f
8:24  -  mph 1017.2mb 52f
8:18  -  1 mph 1017.2mb 52f
8:12  -  mph 1017.2mb 51f
8:06  -  mph 1017.2mb 51f
8:00  -  1 mph 1017.1mb 50f
7:54 1 2 mph 1017mb 50f
7:48 2
mph
1017mb 50f
7:42 2 3 mph 1016.9mb 50f
7:36 2 3 mph 1017mb 50f
7:30 1
mph
1016.9mb 50f
7:24 2
mph
1016.9mb 50f
7:18 1 2 mph 1016.9mb 50f
7:12 1
mph
1016.9mb 50f
7:06 2
mph
1017mb 49f
7:00  -  1 mph 1017mb 50f
6:54  -  mph 1016.9mb 51f
6:48 1 2 mph 1016.7mb 51f
6:42 1 2 mph 1016.9mb 51f
6:36  -  1 mph 1017mb 51f
6:30  -  1 mph 1017.1mb 50f
6:24  -  mph 1017.1mb 50f
6:18  -  mph - 49f
6:12  -  mph - 49f
6:06  -  1 mph - 48f
6:00  -  1 mph 1017.1mb 49f
5:54  -  1 mph 1017.1mb 48f
5:48  -  mph 1017.2mb 48f
5:42  -  mph 1017.1mb 48f
5:36  -  mph 1017.2mb 48f
5:30  -  1 mph 1017.1mb 48f
5:24  -  1 mph 1017.2mb 48f
5:18 1 2 mph 1017.1mb 49f
5:12  -  1 mph 1017.2mb 48f
5:06  -  mph 1017.2mb 48f
5:00  -  mph 1017.1mb 49f
4:54  -  1 mph 1017.1mb 49f
4:48  -  mph 1016.9mb 49f
4:42  -  2 mph 1016.9mb 49f
4:36  -  1 mph 1016.9mb 49f
4:30  -  1 mph 1017mb 49f
4:24 1 2 mph 1016.9mb 49f
4:18 1 2 mph 1016.8mb 49f
4:12 1 2 mph 1016.8mb 49f
4:06 2 3 mph 1016.9mb 49f
4:00 2
mph
1017mb 48f
3:54 2
mph
1016.9mb 49f
3:48 1 2 mph 1017mb 49f
3:42  -  mph 1017mb 48f
3:36  -  1 mph 1017mb 48f
3:30  -  2 mph 1017.1mb 48f
3:24 1 3 mph 1017.2mb 49f
3:18 2 3 mph 1017.2mb 49f
3:12  -  1 mph 1017.3mb 48f
3:06 2
mph
1017.3mb 48f
3:00 2
mph
1017.2mb 49f
2:54 3
mph
1017.3mb 47f
2:48 2 3 mph 1017.3mb 47f
2:42 1 2 mph 1017.2mb 48f
2:36 1 2 mph 1017.3mb 48f
2:30  -  1 mph 1017.3mb 49f
2:24 1 2 mph 1017.4mb 49f
2:18 2
mph
1017.4mb 48f
2:12 1 2 mph 1017.4mb 49f
2:06 1
mph
1017.3mb 48f
2:00 1
mph
1017.3mb 48f
1:54  -  mph 1017.2mb 49f
1:48  -  1 mph 1017mb 49f
1:42 1 2 mph 1017mb 49f
1:36 1 2 mph 1016.9mb 49f
1:30 1 2 mph 1016.8mb 49f
1:24  -  1 mph 1016.7mb 48f
1:18 2 3 mph 1016.8mb 49f
1:12 3 5 mph 1016.7mb 49f
1:06 3 5 mph 1016.8mb 49f
1:00 3 5 mph 1016.6mb 50f
12:54 3
mph
1016.5mb 50f
12:48 3 5 mph 1016.4mb 49f
12:42 3
mph
1016.4mb 49f
12:36 2 3 mph 1016.3mb 47f
12:30 1 2 mph 1016.3mb 47f
12:24  -  1 mph 1016.1mb 47f
12:18 1
mph
1016.1mb 48f
12:12  -  2 mph 1016.2mb 49f
12:06 2 3 mph 1016.1mb 50f
12:00 1 2 mph 1015.9mb 50f
lun. 10/27 11:54 1 2 mph 1015.9mb 50f
11:48  -  1 mph 1016.1mb 49f
11:42  -  2 mph 1016.2mb 49f
11:36 2 3 mph 1016.2mb 49f
11:30 3 5 mph 1016.3mb 49f
11:24 2 3 mph 1016.4mb 49f
11:18 2
mph
1016.5mb 50f
11:12 2
mph
1016.5mb 50f
11:06 2 3 mph 1016.4mb 50f
11:00 3
mph
1016.3mb 50f
10:54 3 5 mph 1016.3mb 50f
10:48  -  mph 1016.4mb 50f
10:42  -  mph 1016.3mb 50f
10:36  -  mph 1016.3mb 50f
10:30  -  mph 1016.2mb 50f
10:24  -  mph 1016.2mb 50f
10:18  -  2 mph 1016.2mb 50f
10:12 3 5 mph 1016.3mb 51f
10:06 5 6 mph 1016.3mb 51f
10:00 3 5 mph 1016.3mb 51f
9:54 3 6 mph 1016.3mb 51f
9:48 5 7 mph 1016.3mb 51f
9:42 5 6 mph 1016.3mb 51f
9:36 5 6 mph 1016.1mb 52f
9:30 3 5 mph 1015.9mb 52f
9:24 5 6 mph 1015.7mb 52f
9:18 3
mph
1015.5mb 52f
9:12 2 3 mph 1015.5mb 52f
9:06 3 5 mph 1015.5mb 52f
9:00 2 3 mph 1015.5mb 52f
8:54 3 6 mph 1015.4mb 53f
8:48 3 6 mph 1015.3mb 53f
8:42 5 7 mph 1015.2mb 53f
8:36 3 6 mph 1015.1mb 53f
8:30 3 6 mph 1015mb 53f
8:24 5 7 mph 1014.9mb 54f
8:18 6 9 mph 1014.9mb 54f
8:12 5 7 mph 1014.6mb 54f
8:06 6 8 mph 1014.5mb 54f
8:00 6 8 mph 1014.5mb 54f
7:54 5 8 mph 1014.5mb 54f
7:48 6 7 mph 1014.4mb 55f
7:42 6 8 mph 1014.3mb 54f
7:36 6 9 mph 1014.4mb 55f
7:30 6 9 mph 1014.5mb 55f
7:24 3 6 mph 1014.3mb 55f
7:18 3 6 mph 1014.3mb 55f
7:12 5 7 mph 1014.3mb 55f
7:06 5 6 mph 1014.3mb 55f
7:00 5 7 mph 1014.3mb 55f
6:54 5 7 mph 1014.3mb 56f
6:48 6 8 mph 1014.3mb 56f
6:42 6 9 mph 1014.3mb 56f
6:36 6 10 mph 1014.2mb 57f
6:30 5 6 mph 1014mb 57f
6:24 7 13 mph 1013.9mb 57f
6:18 7 10 mph 1013.7mb 57f
6:12 7 10 mph 1013.6mb 57f
6:06 7 10 mph 1013.5mb 58f
6:00 6 9 mph 1013.4mb 58f
5:54 6 11 mph 1013.2mb 58f
5:48 7 15 mph 1013.1mb 58f
5:42 6 11 mph 1013mb 58f
5:36 7 11 mph 1013.1mb 59f
5:30 3 8 mph 1013.1mb 59f
5:24 2 3 mph 1013.1mb 60f
5:18 2 6 mph 1013mb 60f
5:12 6 10 mph 1013.1mb 60f
5:06 8 14 mph 1013mb 60f
5:00 8 17 mph 1012.8mb 61f
4:54 6 11 mph 1012.7mb 61f
4:48 5 11 mph 1012.6mb 62f
4:42 6 10 mph 1012.6mb 62f
4:36 6 9 mph 1012.5mb 62f
4:30 7 9 mph 1012.4mb 62f
4:24 8 14 mph 1012.4mb 63f
4:18 6 13 mph 1012.3mb 63f
4:12 7 14 mph 1012.2mb 63f
4:06 8 13 mph 1012.2mb 63f
4:00 7 11 mph 1012mb 64f
3:54 6 13 mph 1011.9mb 64f
3:48 6 13 mph 1011.9mb 63f
3:42 6 13 mph 1011.8mb 64f
3:36 6 15 mph 1011.9mb 64f
3:30 5 11 mph 1011.8mb 64f
3:24 7 14 mph 1011.8mb 63f
3:18 6 11 mph 1011.8mb 63f
3:12 6 13 mph 1011.8mb 64f
3:06 7 14 mph 1011.6mb 63f
3:00 7 16 mph 1011.6mb 63f
2:54 6 13 mph 1011.7mb 64f
2:48 6 13 mph 1011.6mb 64f
2:24 6 13 mph 1011.8mb 64f
2:18 6 15 mph 1011.8mb 64f
2:12 8 16 mph 1011.8mb 64f
2:06 6 14 mph 1011.8mb 64f
2:00 6 15 mph 1011.8mb 63f
1:54 6 14 mph 1011.8mb 63f
1:48 5 9 mph 1011.8mb 64f
1:42 7 16 mph 1011.7mb 63f
1:36 6 10 mph 1011.7mb 63f
1:30 6 16 mph 1011.7mb 63f
1:24 7 13 mph 1011.7mb 63f
1:18 7 11 mph 1011.8mb 63f
1:12 7 14 mph 1011.9mb 62f
1:06 8 15 mph 1011.9mb 62f
1:00 6 13 mph 1012mb 62f
12:54 8 15 mph 1012mb 62f
12:48 6 17 mph 1012mb 62f
12:42 9 15 mph 1012.1mb 62f
12:36 9 16 mph 1012.2mb 62f
12:30 8 16 mph 1012.3mb 61f
12:24 8 18 mph 1012.3mb 62f
12:18 8 17 mph 1012.2mb 61f
12:12 8 15 mph 1012.3mb 62f
12:06 8 15 mph 1012.2mb 60f
12:00 6 13 mph 1012.2mb 60f
11:54 8 15 mph 1012.3mb 61f
11:48 8 15 mph 1012.2mb 60f
11:42 8 16 mph 1012.2mb 61f
11:36 9 18 mph 1012.1mb 60f
11:30 8 16 mph 1012.1mb 60f
11:24 7 14 mph 1012.1mb 61f
11:18 8 16 mph 1012.1mb 59f
11:12 9 16 mph 1012mb 59f
11:06 7 16 mph 1012mb 59f
11:00 7 16 mph 1012mb 59f
10:54 10 18 mph 1011.9mb 58f
10:48 7 13 mph 1011.8mb 58f
10:42 7 14 mph 1011.8mb 58f
10:36 6 14 mph 1011.9mb 58f
10:30 8 14 mph 1011.7mb 57f
10:24 7 14 mph 1011.7mb 57f
10:18 6 11 mph 1011.6mb 57f
10:12 5 11 mph 1011.5mb 57f
10:06 6 11 mph 1011.4mb 57f
10:00 6 10 mph 1011.4mb 56f
9:54 6 13 mph 1011.5mb 56f
9:48 6 13 mph 1011.4mb 56f
9:42 8 15 mph 1011.4mb 55f
9:36 7 13 mph 1011.4mb 55f
9:30 8 16 mph 1011.4mb 55f
9:24 5 13 mph 1011.3mb 55f
9:18 7 11 mph 1011.3mb 54f
9:12 8 14 mph 1011.2mb 54f
9:06 5 11 mph 1011.2mb 54f
9:00 9 14 mph 1011mb 53f
8:54 8 15 mph 1010.9mb 53f
8:48 10 22 mph 1010.8mb 53f
8:42 9 16 mph 1010.6mb 53f
8:36 8 14 mph 1010.6mb 53f
8:30 8 16 mph 1010.6mb 53f
8:24 8 17 mph 1010.5mb 53f
8:18 10 21 mph 1010.4mb 52f
8:12 10 22 mph 1010.4mb 52f
8:06 8 18 mph 1010.3mb 52f
8:00 7 18 mph 1010.2mb 51f
7:54 7 13 mph 1010.2mb 51f
7:48 6 10 mph 1010.1mb 51f
7:42 9 16 mph 1010mb 51f
7:36 7 16 mph 1009.9mb 50f
7:30 5 11 mph 1009.8mb 50f
7:24 7 13 mph 1009.7mb 50f
7:18 7 14 mph 1009.5mb 50f
7:12 9 15 mph 1009.3mb 50f
7:06 8 14 mph 1009.3mb 50f
7:00 7 16 mph 1009.2mb 50f
6:54 7 17 mph 1009.2mb 50f
6:48 9 16 mph 1009.2mb 50f
6:42 8 13 mph 1009.1mb 50f
6:36 8 15 mph 1008.9mb 50f
6:30 9 15 mph 1008.9mb 50f
6:24 8 11 mph 1008.9mb 49f
6:18 5 8 mph 1008.9mb 50f
6:12 7 11 mph 1008.8mb 50f
6:06 8 14 mph 1008.6mb 49f
6:00 6 10 mph 1008.7mb 49f
5:54 6 9 mph 1008.6mb 49f
5:48 7 10 mph 1008.4mb 49f
5:42 6 13 mph 1008.4mb 49f
5:36 7 13 mph 1008.2mb 49f
5:30 7 10 mph 1008.2mb 49f
5:24 7 9 mph 1008.2mb 49f
5:18 6 9 mph 1008.2mb 48f
5:12 5 7 mph 1008.2mb 48f
5:06 3 6 mph 1008.3mb 48f
5:00 5 7 mph 1008.3mb 48f
4:54 3 7 mph 1008.2mb 48f
4:48 2 5 mph 1008.2mb 48f
4:42 2 6 mph 1008.1mb 48f
4:36 5 8 mph 1008mb 48f
4:30 5 7 mph 1008mb 48f
4:24 3 5 mph 1008mb 49f
4:18 6 11 mph 1008mb 48f
4:12 3 8 mph 1007.9mb 48f
4:06 3 7 mph 1007.9mb 48f
4:00 5 7 mph 1007.9mb 48f
3:54 3 6 mph 1007.7mb 48f
3:48 5 10 mph 1007.7mb 48f
3:42 6 10 mph 1007.6mb 48f
3:36 5 9 mph 1007.5mb 47f
3:30 3 6 mph 1007.5mb 47f
3:24 3 8 mph 1007.5mb 47f
3:18 5 8 mph 1007.5mb 48f
3:12 5 8 mph 1007.5mb 48f
3:06 5 8 mph 1007.4mb 47f
3:00 3 6 mph 1007.4mb 47f
2:54 5 8 mph 1007.4mb 47f
2:48 3 6 mph 1007.4mb 47f
2:42 3 7 mph 1007.4mb 47f
2:36 3 6 mph 1007.4mb 48f
2:30 6 9 mph 1007.4mb 48f
2:24 3 6 mph 1007.4mb 48f
2:18 6 8 mph 1007.3mb 48f
2:12 6 9 mph 1007.2mb 48f
2:06 7 11 mph 1007.2mb 48f
2:00 6 10 mph 1007.2mb 48f
1:54 5 8 mph 1007.2mb 48f
1:48 6 11 mph 1007.1mb 48f
1:42 6 13 mph 1007.1mb 48f
1:36 7 13 mph 1007mb 48f
1:30 7 13 mph 1007mb 48f
1:24 7 13 mph 1006.9mb 48f
1:18 7 11 mph 1006.8mb 48f
1:12 7 14 mph 1006.8mb 48f
1:06 8 13 mph 1006.8mb 48f
1:00 7 14 mph 1006.8mb 48f
12:54 7 11 mph 1006.8mb 48f
12:48 8 16 mph 1006.8mb 48f
12:42 8 13 mph 1006.8mb 49f
12:36 8 14 mph 1006.8mb 49f
12:30 8 14 mph 1006.7mb 49f
12:24 7 11 mph 1006.6mb 49f
12:18 7 13 mph 1006.5mb 49f
12:12 7 11 mph 1006.5mb 49f
12:06 7 11 mph 1006.5mb 49f
12:00 8 13 mph 1006.5mb 49f
dim. 10/26 11:54 7 11 mph 1006.5mb 49f
11:48 6 11 mph 1006.5mb 49f
11:42 8 14 mph 1006.5mb 49f
11:36 7 13 mph 1006.5mb 49f
11:30 8 13 mph 1006.4mb 49f
11:24 7 11 mph 1006.4mb 49f
11:18 9 15 mph 1006.4mb 49f
11:12 7 13 mph 1006.2mb 49f
11:06 7 14 mph 1006.1mb 49f
11:00 7 13 mph 1006.1mb 49f